Time;durP1;ratioP1;P1;durP2;ratioP2;P2;SDS_P1;SDS_P2;PMS_P1;PMS_P2;Temp;Humidity;BMP_temperature;BMP_pressure;BME280_temperature;BME280_humidity;BME280_pressure;Samples;Min_cycle;Max_cycle;Signal;HPM_P1;HPM_P2
2023/05/16 00:01:41;;;;;;;6.97;2.30;;;9.40;99.90;;;;;;5050839;28;20036;-73
2023/05/16 00:04:07;;;;;;;5.57;1.92;;;9.40;99.90;;;;;;5050165;28;20474;-73
2023/05/16 00:06:34;;;;;;;5.15;1.60;;;9.30;99.90;;;;;;5050483;28;20043;-73
2023/05/16 00:09:00;;;;;;;4.07;2.10;;;9.30;99.90;;;;;;5050073;28;20040;-74
2023/05/16 00:11:26;;;;;;;5.43;2.10;;;9.20;99.90;;;;;;5050619;28;20040;-73
2023/05/16 00:13:52;;;;;;;4.60;1.95;;;9.20;99.90;;;;;;5050009;28;20390;-73
2023/05/16 00:16:20;;;;;;;7.93;2.15;;;9.10;99.90;;;;;;5050226;28;20033;-73
2023/05/16 00:18:47;;;;;;;3.20;1.70;;;9.20;99.90;;;;;;5050463;28;20035;-73
2023/05/16 00:21:12;;;;;;;6.20;2.45;;;9.10;99.90;;;;;;5050285;28;20043;-73
2023/05/16 00:23:38;;;;;;;5.68;1.80;;;9.00;99.90;;;;;;5049986;28;20024;-73
2023/05/16 00:26:04;;;;;;;4.85;1.83;;;8.90;99.90;;;;;;5050077;28;20178;-73
2023/05/16 00:28:30;;;;;;;6.90;1.73;;;8.90;99.90;;;;;;5050443;28;20457;-73
2023/05/16 00:30:55;;;;;;;5.43;1.90;;;8.80;99.90;;;;;;5050532;28;20136;-73
2023/05/16 00:33:21;;;;;;;7.97;1.92;;;8.80;99.90;;;;;;5049903;28;20109;-73
2023/05/16 00:35:48;;;;;;;5.35;1.60;;;8.80;99.90;;;;;;5050649;28;20458;-73
2023/05/16 00:38:13;;;;;;;5.10;1.98;;;8.70;99.90;;;;;;5054086;28;20083;-73
2023/05/16 00:40:39;;;;;;;5.10;2.28;;;8.60;99.90;;;;;;5054255;28;20366;-73
2023/05/16 00:43:05;;;;;;;5.03;2.10;;;8.60;99.90;;;;;;5053819;28;20029;-73
2023/05/16 00:45:31;;;;;;;4.57;2.08;;;8.50;99.90;;;;;;5053952;28;20036;-73
2023/05/16 00:47:56;;;;;;;7.88;1.95;;;8.50;99.90;;;;;;5054097;28;20123;-74
2023/05/16 00:50:22;;;;;;;3.90;1.67;;;8.40;99.90;;;;;;5053740;28;20111;-73
2023/05/16 00:52:48;;;;;;;4.35;1.80;;;8.30;99.90;;;;;;5054018;28;20377;-73
2023/05/16 00:55:14;;;;;;;5.75;1.92;;;8.20;99.90;;;;;;5053462;28;20025;-73
2023/05/16 00:57:40;;;;;;;4.72;1.50;;;8.20;99.90;;;;;;5053844;28;20396;-73
2023/05/16 01:00:09;;;;;;;4.65;1.63;;;8.10;99.90;;;;;;5053436;28;20382;-73
2023/05/16 01:02:36;;;;;;;5.03;2.10;;;8.00;99.90;;;;;;5053850;28;20386;-73
2023/05/16 01:05:07;;;;;;;4.05;1.60;;;8.00;99.90;;;;;;5053141;28;20548;-74
2023/05/16 01:07:34;;;;;;;6.50;2.28;;;7.90;99.90;;;;;;5053721;28;20033;-73
2023/05/16 01:10:01;;;;;;;6.18;1.80;;;8.00;99.90;;;;;;5053038;28;20021;-74
2023/05/16 01:12:42;;;;;;;5.85;2.13;;;7.90;99.90;;;;;;5053844;28;20029;-73
2023/05/16 01:15:12;;;;;;;4.22;1.88;;;7.90;99.90;;;;;;5053794;28;20173;-73
2023/05/16 01:18:02;;;;;;;4.47;1.42;;;7.90;99.90;;;;;;5054016;28;20037;-73
2023/05/16 01:20:48;;;;;;;6.45;2.30;;;7.90;99.90;;;;;;5053545;28;20107;-73
2023/05/16 01:23:17;;;;;;;4.07;1.90;;;7.90;99.90;;;;;;5053058;28;20053;-73
2023/05/16 01:26:12;;;;;;;5.88;1.65;;;7.90;99.90;;;;;;5053476;28;20068;-73
2023/05/16 01:28:40;;;;;;;4.63;2.15;;;8.00;99.90;;;;;;5052938;28;20039;-74
2023/05/16 01:31:06;;;;;;;4.28;2.00;;;8.00;99.90;;;;;;5053246;28;20048;-73
2023/05/16 01:33:31;;;;;;;4.53;1.70;;;8.00;99.90;;;;;;5053134;28;20025;-73
2023/05/16 01:36:20;;;;;;;7.97;2.30;;;7.90;99.90;;;;;;5053296;28;20024;-73
2023/05/16 01:39:07;;;;;;;5.30;1.95;;;7.90;99.90;;;;;;5035806;28;20481;-73
2023/05/16 01:42:01;;;;;;;6.40;2.38;;;7.80;99.90;;;;;;5052650;28;20051;-73
2023/05/16 01:44:40;;;;;;;5.65;2.35;;;7.60;99.90;;;;;;5053156;28;20028;-73
2023/05/16 01:47:11;;;;;;;3.50;1.90;;;7.50;99.90;;;;;;5052264;28;20262;-74
2023/05/16 01:49:56;;;;;;;5.07;1.95;;;7.50;99.90;;;;;;5052884;28;20021;-73
2023/05/16 01:52:31;;;;;;;5.53;1.80;;;7.50;99.90;;;;;;5053617;28;20032;-73
2023/05/16 01:54:58;;;;;;;5.70;2.17;;;7.50;99.90;;;;;;5053036;28;20469;-73
2023/05/16 01:57:25;;;;;;;5.00;2.10;;;7.40;99.90;;;;;;5053158;28;20051;-74
2023/05/16 01:59:52;;;;;;;3.58;2.05;;;7.40;99.90;;;;;;5052722;28;20426;-73
2023/05/16 02:02:18;;;;;;;5.03;2.10;;;7.40;99.90;;;;;;5052576;28;20048;-73
2023/05/16 02:04:45;;;;;;;5.05;2.15;;;7.40;99.90;;;;;;5052496;28;20029;-73
2023/05/16 02:07:13;;;;;;;6.25;2.28;;;7.40;99.90;;;;;;5052063;28;20116;-73
2023/05/16 02:09:38;;;;;;;7.38;2.38;;;7.30;99.90;;;;;;5052811;28;20477;-73
2023/05/16 02:12:04;;;;;;;10.27;2.00;;;7.30;99.90;;;;;;5052389;28;20021;-74
2023/05/16 02:14:30;;;;;;;8.38;2.00;;;7.20;99.90;;;;;;5052216;28;20029;-73
2023/05/16 02:16:57;;;;;;;5.85;2.08;;;7.20;99.90;;;;;;5052790;28;20438;-73
2023/05/16 02:19:22;;;;;;;7.05;2.58;;;7.20;99.90;;;;;;5052490;28;20127;-73
2023/05/16 02:21:49;;;;;;;5.82;2.60;;;7.10;99.90;;;;;;5052407;28;20565;-73
2023/05/16 02:24:14;;;;;;;3.90;2.28;;;7.10;99.90;;;;;;5051739;28;20386;-73
2023/05/16 02:26:40;;;;;;;5.55;2.33;;;7.10;99.90;;;;;;5052087;28;20029;-73
2023/05/16 02:29:06;;;;;;;4.53;2.10;;;7.00;99.90;;;;;;5052021;28;20094;-74
2023/05/16 02:31:33;;;;;;;5.07;2.00;;;7.00;99.90;;;;;;5052297;28;20048;-73
2023/05/16 02:34:00;;;;;;;6.13;2.03;;;7.00;99.90;;;;;;5051960;28;20124;-73
2023/05/16 02:36:26;;;;;;;4.78;2.55;;;6.90;99.90;;;;;;5052039;28;20056;-73
2023/05/16 02:38:52;;;;;;;4.55;2.17;;;6.90;99.90;;;;;;5052048;28;20532;-73
2023/05/16 02:41:17;;;;;;;5.57;2.05;;;6.90;99.90;;;;;;5051673;28;20547;-73
2023/05/16 02:43:43;;;;;;;4.32;2.13;;;6.90;99.90;;;;;;5051957;28;20025;-73
2023/05/16 02:46:32;;;;;;;6.13;2.10;;;6.90;99.90;;;;;;5051397;28;20068;-73
2023/05/16 02:48:58;;;;;;;7.05;2.35;;;6.90;99.90;;;;;;5052157;28;20469;-73
2023/05/16 02:51:25;;;;;;;4.93;2.17;;;6.80;99.90;;;;;;5051243;28;20069;-73
2023/05/16 02:53:51;;;;;;;6.38;2.38;;;6.80;99.90;;;;;;5051492;28;20428;-73
2023/05/16 02:56:18;;;;;;;5.93;2.40;;;6.80;99.90;;;;;;5051433;28;20037;-73
2023/05/16 02:58:47;;;;;;;5.90;2.53;;;6.80;99.90;;;;;;5051554;28;20385;-73
2023/05/16 03:01:13;;;;;;;4.38;2.40;;;6.80;99.90;;;;;;5051204;28;20481;-74
2023/05/16 03:03:38;;;;;;;5.57;2.42;;;6.80;99.90;;;;;;5051364;28;20467;-73
2023/05/16 03:06:05;;;;;;;4.60;2.25;;;6.70;99.90;;;;;;5051517;28;20021;-73
2023/05/16 03:08:31;;;;;;;4.72;2.20;;;6.60;99.90;;;;;;5051213;28;20033;-73
2023/05/16 03:10:56;;;;;;;4.35;2.45;;;6.60;99.90;;;;;;5051418;28;20025;-73
2023/05/16 03:13:22;;;;;;;6.32;2.13;;;6.60;99.90;;;;;;5051151;28;20051;-73
2023/05/16 03:15:48;;;;;;;6.65;2.20;;;6.60;99.90;;;;;;5051280;28;20024;-73
2023/05/16 03:18:14;;;;;;;7.57;2.47;;;6.60;99.90;;;;;;5051003;28;20143;-73
2023/05/16 03:20:40;;;;;;;6.80;2.30;;;6.60;99.90;;;;;;5051354;28;20105;-73
2023/05/16 03:23:07;;;;;;;4.38;2.28;;;6.50;99.90;;;;;;5051251;28;20108;-73
2023/05/16 03:25:36;;;;;;;7.68;2.70;;;6.50;99.90;;;;;;5051089;28;20424;-73
2023/05/16 03:28:04;;;;;;;4.80;2.03;;;6.50;99.90;;;;;;5051143;28;20501;-73
2023/05/16 03:30:29;;;;;;;4.78;2.35;;;6.50;99.90;;;;;;5050451;28;20470;-73
2023/05/16 03:32:55;;;;;;;6.70;2.42;;;6.40;99.90;;;;;;5051202;28;20033;-72
2023/05/16 03:35:22;;;;;;;4.75;2.25;;;6.50;99.90;;;;;;5050439;28;20120;-74
2023/05/16 03:37:47;;;;;;;5.85;2.13;;;6.50;99.90;;;;;;5050935;28;20033;-73
2023/05/16 03:40:13;;;;;;;4.72;2.30;;;6.50;99.90;;;;;;5050399;28;20454;-73
2023/05/16 03:42:39;;;;;;;7.95;2.47;;;6.40;99.90;;;;;;5050622;28;20478;-73
2023/05/16 03:45:05;;;;;;;6.53;2.53;;;6.40;99.90;;;;;;5050602;28;20109;-73
2023/05/16 03:47:31;;;;;;;6.32;2.72;;;6.40;99.90;;;;;;5050021;28;20033;-73
2023/05/16 03:49:57;;;;;;;3.30;2.40;;;6.40;99.90;;;;;;5050809;28;20291;-73
2023/05/16 03:52:23;;;;;;;6.18;2.30;;;6.40;99.90;;;;;;5050395;28;20442;-73
2023/05/16 03:54:49;;;;;;;4.20;2.22;;;6.40;99.90;;;;;;5050648;28;20033;-73
2023/05/16 03:57:15;;;;;;;4.97;2.45;;;6.40;99.90;;;;;;5050524;28;20355;-73
2023/05/16 03:59:41;;;;;;;4.05;2.20;;;6.40;99.90;;;;;;5050472;28;20044;-73
2023/05/16 04:02:07;;;;;;;4.30;2.20;;;6.30;99.90;;;;;;5050617;28;20025;-73
2023/05/16 04:04:32;;;;;;;7.53;2.40;;;6.30;99.90;;;;;;5050256;28;20033;-73
2023/05/16 04:06:58;;;;;;;4.35;2.42;;;6.30;99.90;;;;;;5050506;28;20032;-73
2023/05/16 04:09:24;;;;;;;6.30;2.65;;;6.30;99.90;;;;;;5050584;28;20384;-73
2023/05/16 04:11:50;;;;;;;5.22;2.33;;;6.30;99.90;;;;;;5052274;28;20075;-73
2023/05/16 04:14:16;;;;;;;6.93;2.65;;;6.30;99.90;;;;;;5054485;28;20035;-73
2023/05/16 04:16:42;;;;;;;6.70;2.50;;;6.20;99.90;;;;;;5054750;28;20099;-73
2023/05/16 04:19:07;;;;;;;7.22;2.72;;;6.20;99.90;;;;;;5054253;28;20385;-73
2023/05/16 04:21:35;;;;;;;6.75;2.20;;;6.20;99.90;;;;;;5054120;28;20373;-74
2023/05/16 04:24:01;;;;;;;5.30;2.20;;;6.30;99.90;;;;;;5054338;28;20116;-73
2023/05/16 04:26:26;;;;;;;6.10;2.40;;;6.20;99.90;;;;;;5054527;28;20112;-73
2023/05/16 04:28:52;;;;;;;7.20;2.53;;;6.30;99.90;;;;;;5055126;28;20032;-72
2023/05/16 04:31:18;;;;;;;5.70;2.67;;;6.30;99.90;;;;;;5054253;28;20109;-73
2023/05/16 04:33:44;;;;;;;6.63;2.30;;;6.30;99.90;;;;;;5054622;28;20029;-73
2023/05/16 04:36:10;;;;;;;5.75;2.38;;;6.30;99.90;;;;;;5054208;28;20036;-73
2023/05/16 04:38:36;;;;;;;11.07;2.83;;;6.30;99.90;;;;;;5053718;28;20358;-73
2023/05/16 04:41:02;;;;;;;9.85;2.55;;;6.30;99.90;;;;;;5054105;28;20331;-73
2023/05/16 04:43:28;;;;;;;9.02;2.78;;;6.30;99.90;;;;;;5053330;28;20033;-73
2023/05/16 04:45:54;;;;;;;8.27;2.40;;;6.30;99.90;;;;;;5054129;28;20044;-73
2023/05/16 04:48:20;;;;;;;5.15;2.40;;;6.30;99.90;;;;;;5053635;28;20435;-73
2023/05/16 04:50:46;;;;;;;8.25;2.80;;;6.40;99.90;;;;;;5053867;28;20067;-73
2023/05/16 04:53:13;;;;;;;7.25;2.92;;;6.40;99.90;;;;;;5054323;28;20132;-74
2023/05/16 04:55:39;;;;;;;9.18;2.70;;;6.40;99.90;;;;;;5053824;28;20032;-73
2023/05/16 04:58:05;;;;;;;7.20;2.55;;;6.40;99.90;;;;;;5053429;28;20108;-73
2023/05/16 05:00:31;;;;;;;5.75;2.22;;;6.40;99.90;;;;;;5053320;28;20080;-73
2023/05/16 05:02:57;;;;;;;6.35;2.75;;;6.40;99.90;;;;;;5053322;28;20112;-73
2023/05/16 05:05:23;;;;;;;9.13;2.50;;;6.40;99.90;;;;;;5053681;28;20370;-74
2023/05/16 05:07:48;;;;;;;6.80;2.50;;;6.50;99.90;;;;;;5053659;28;20065;-73
2023/05/16 05:10:14;;;;;;;6.80;2.42;;;6.60;99.90;;;;;;5035179;28;20040;-76
2023/05/16 05:12:40;;;;;;;6.47;2.00;;;6.60;99.90;;;;;;5053189;28;20079;-72
2023/05/16 05:15:06;;;;;;;5.00;2.47;;;6.60;99.90;;;;;;5053551;28;20032;-73
2023/05/16 05:17:32;;;;;;;6.18;2.50;;;6.80;99.90;;;;;;5053050;28;20059;-73
2023/05/16 05:19:57;;;;;;;7.75;2.75;;;7.00;99.90;;;;;;5053483;28;20029;-73
2023/05/16 05:22:23;;;;;;;7.03;2.65;;;7.10;99.90;;;;;;5053072;28;20374;-74
2023/05/16 05:24:49;;;;;;;10.55;2.70;;;7.30;99.90;;;;;;5053185;28;20063;-73
2023/05/16 05:27:15;;;;;;;7.38;2.60;;;7.50;99.90;;;;;;5035055;28;20213;-75
2023/05/16 05:29:40;;;;;;;5.07;2.40;;;7.60;99.90;;;;;;5053083;28;20049;-73
2023/05/16 05:32:07;;;;;;;17.02;5.95;;;7.70;99.90;;;;;;5053364;28;20021;-74
2023/05/16 05:34:33;;;;;;;7.80;4.05;;;7.80;99.90;;;;;;5052527;28;20425;-73
2023/05/16 05:36:59;;;;;;;9.20;2.97;;;7.90;99.90;;;;;;5053413;28;20043;-73
2023/05/16 05:39:25;;;;;;;10.45;2.97;;;8.10;99.90;;;;;;5052973;28;20021;-73
2023/05/16 05:41:51;;;;;;;17.08;4.75;;;8.20;99.90;;;;;;5053310;28;20488;-73
2023/05/16 05:44:16;;;;;;;7.53;2.88;;;8.30;99.90;;;;;;5052895;28;20029;-74
2023/05/16 05:46:42;;;;;;;8.50;2.33;;;8.40;99.90;;;;;;5052930;28;20467;-72
2023/05/16 05:49:08;;;;;;;7.63;2.70;;;8.60;99.90;;;;;;5053076;28;20043;-73
2023/05/16 05:51:34;;;;;;;6.18;2.30;;;8.80;99.90;;;;;;5052831;28;20025;-73
2023/05/16 05:54:00;;;;;;;7.35;2.45;;;9.00;99.90;;;;;;5052833;28;20025;-73
2023/05/16 05:56:26;;;;;;;7.13;2.70;;;9.10;99.90;;;;;;5052540;28;20033;-74
2023/05/16 05:58:52;;;;;;;5.82;2.33;;;9.30;99.90;;;;;;5052991;28;20074;-73
2023/05/16 06:01:20;;;;;;;8.50;2.50;;;9.50;99.90;;;;;;5052452;28;20115;-74
2023/05/16 06:03:46;;;;;;;9.07;3.08;;;9.60;99.90;;;;;;5052924;28;20328;-73
2023/05/16 06:06:11;;;;;;;7.68;2.85;;;9.70;99.90;;;;;;5052578;28;20114;-74
2023/05/16 06:08:37;;;;;;;6.95;2.88;;;9.80;99.90;;;;;;5052470;28;20433;-73
2023/05/16 06:11:03;;;;;;;8.38;2.42;;;10.00;99.90;;;;;;5052622;28;20041;-73
2023/05/16 06:13:29;;;;;;;11.60;2.83;;;10.00;99.90;;;;;;5052438;28;20021;-73
2023/05/16 06:15:55;;;;;;;11.27;2.60;;;10.10;99.90;;;;;;5052445;28;20430;-73
2023/05/16 06:18:20;;;;;;;5.97;2.58;;;10.20;99.90;;;;;;5034248;28;20056;-74
2023/05/16 06:20:46;;;;;;;8.15;3.22;;;10.30;99.90;;;;;;5052417;28;20040;-73
2023/05/16 06:23:12;;;;;;;7.00;2.92;;;10.30;99.90;;;;;;5052111;28;20354;-72
2023/05/16 06:25:38;;;;;;;9.73;3.20;;;10.40;99.90;;;;;;5051975;28;20043;-72
2023/05/16 06:28:04;;;;;;;8.10;3.10;;;10.50;99.90;;;;;;5052086;28;20442;-72
2023/05/16 06:30:30;;;;;;;8.10;2.78;;;10.70;99.90;;;;;;5051652;28;20530;-73
2023/05/16 06:32:55;;;;;;;8.18;2.80;;;10.70;99.90;;;;;;5052113;28;20047;-73
2023/05/16 06:35:21;;;;;;;13.30;2.92;;;10.80;99.90;;;;;;5050971;28;20029;-73
2023/05/16 06:37:47;;;;;;;9.40;3.08;;;10.90;99.90;;;;;;5052521;28;20040;-73
2023/05/16 06:40:13;;;;;;;11.00;2.83;;;10.90;99.90;;;;;;5052293;28;20029;-73
2023/05/16 06:42:39;;;;;;;8.88;2.78;;;10.90;99.90;;;;;;5052294;28;20033;-72
2023/05/16 06:45:05;;;;;;;9.68;2.92;;;11.10;99.90;;;;;;5052301;28;20043;-73
2023/05/16 06:47:31;;;;;;;8.70;2.55;;;11.20;99.90;;;;;;5052092;28;20024;-73
2023/05/16 06:49:57;;;;;;;9.70;3.72;;;11.30;99.90;;;;;;5052390;28;20032;-74
2023/05/16 06:52:24;;;;;;;12.93;3.47;;;11.40;99.90;;;;;;5052043;28;20044;-74
2023/05/16 06:54:50;;;;;;;11.40;3.03;;;11.40;99.90;;;;;;5052056;28;20025;-74
2023/05/16 06:57:16;;;;;;;10.98;2.92;;;11.30;99.90;;;;;;5051772;28;20028;-73
2023/05/16 06:59:43;;;;;;;5.03;2.47;;;11.40;99.90;;;;;;5051312;28;20029;-73
2023/05/16 07:02:08;;;;;;;8.15;3.08;;;11.50;99.90;;;;;;5051588;28;20029;-73
2023/05/16 07:04:36;;;;;;;5.32;2.78;;;11.70;99.90;;;;;;5051198;28;20029;-74
2023/05/16 07:07:02;;;;;;;7.70;2.95;;;11.80;99.90;;;;;;5051479;28;20498;-74
2023/05/16 07:09:28;;;;;;;8.60;3.13;;;11.90;99.90;;;;;;5051482;28;20086;-73
2023/05/16 07:11:54;;;;;;;7.65;3.08;;;11.90;99.90;;;;;;5051754;28;20025;-73
2023/05/16 07:14:19;;;;;;;8.77;3.20;;;12.00;99.90;;;;;;5051551;28;20029;-73
2023/05/16 07:16:45;;;;;;;7.45;2.75;;;12.10;99.90;;;;;;5051201;28;20040;-73
2023/05/16 07:19:11;;;;;;;12.27;3.22;;;12.20;99.90;;;;;;5050775;28;20116;-73
2023/05/16 07:21:37;;;;;;;12.90;3.40;;;12.30;99.90;;;;;;5050881;28;20458;-73
2023/05/16 07:24:03;;;;;;;14.23;3.25;;;12.40;99.90;;;;;;5051117;28;20029;-73
2023/05/16 07:26:29;;;;;;;12.30;3.40;;;12.40;99.90;;;;;;5050730;28;20033;-74
2023/05/16 07:28:55;;;;;;;10.43;3.60;;;12.50;99.90;;;;;;5050856;28;20029;-73
2023/05/16 07:31:20;;;;;;;10.93;3.33;;;12.60;99.90;;;;;;5051072;28;20496;-73
2023/05/16 07:33:47;;;;;;;9.15;3.13;;;12.60;99.90;;;;;;5050784;28;20108;-74
2023/05/16 07:36:13;;;;;;;8.75;2.92;;;12.70;99.90;;;;;;5051121;28;20029;-73
2023/05/16 07:38:39;;;;;;;16.17;3.90;;;12.60;99.90;;;;;;5050666;28;20021;-73
2023/05/16 07:41:05;;;;;;;11.73;3.08;;;12.70;99.90;;;;;;5051065;28;20037;-73
2023/05/16 07:43:31;;;;;;;11.75;3.47;;;12.90;99.90;;;;;;5050845;28;20032;-73
2023/05/16 07:45:56;;;;;;;13.02;4.00;;;13.00;99.90;;;;;;5050023;28;20033;-73
2023/05/16 07:48:22;;;;;;;14.23;3.25;;;13.00;99.90;;;;;;5050935;28;20021;-73
2023/05/16 07:50:48;;;;;;;13.48;4.03;;;13.10;99.90;;;;;;5050652;28;20033;-73
2023/05/16 07:53:13;;;;;;;11.48;3.78;;;13.20;99.90;;;;;;5051263;28;20079;-72
2023/05/16 07:55:39;;;;;;;16.98;4.07;;;13.30;99.90;;;;;;5050115;28;20035;-72
2023/05/16 07:58:05;;;;;;;12.98;4.18;;;13.40;99.90;;;;;;5050709;28;20120;-73
2023/05/16 08:00:31;;;;;;;13.80;4.40;;;13.40;99.90;;;;;;5050425;28;20151;-73
2023/05/16 08:02:57;;;;;;;11.40;4.15;;;13.40;99.90;;;;;;5051091;28;20124;-72
2023/05/16 08:05:23;;;;;;;11.18;4.18;;;13.40;99.90;;;;;;5050523;28;20029;-72
2023/05/16 08:07:48;;;;;;;12.00;4.40;;;13.50;99.90;;;;;;5049946;28;20056;-72
2023/05/16 08:10:14;;;;;;;12.75;3.70;;;13.50;99.90;;;;;;5050646;28;20029;-72
2023/05/16 08:12:40;;;;;;;11.60;5.07;;;13.70;99.90;;;;;;5050064;28;20036;-73
2023/05/16 08:15:07;;;;;;;8.98;4.05;;;13.80;99.90;;;;;;5050451;28;20111;-73
2023/05/16 08:17:33;;;;;;;12.63;4.43;;;13.90;99.90;;;;;;5051512;28;20041;-72
2023/05/16 08:20:00;;;;;;;14.55;4.28;;;13.90;99.90;;;;;;5050339;28;20072;-72
2023/05/16 08:22:26;;;;;;;12.52;4.00;;;13.90;99.90;;;;;;5050073;28;20049;-76
2023/05/16 08:24:56;;;;;;;13.60;4.00;;;14.00;99.90;;;;;;5050290;28;20040;-72
2023/05/16 08:27:25;;;;;;;18.40;4.60;;;14.10;99.90;;;;;;5050490;28;20079;-72
2023/05/16 08:29:51;;;;;;;14.43;4.68;;;14.20;99.90;;;;;;5050176;28;20045;-72
2023/05/16 08:32:17;;;;;;;11.38;3.88;;;14.00;99.90;;;;;;5050279;28;20386;-72
2023/05/16 08:34:42;;;;;;;16.88;4.63;;;14.20;99.90;;;;;;5049981;28;20104;-73
2023/05/16 08:37:09;;;;;;;13.90;4.72;;;14.30;99.90;;;;;;5050316;28;20373;-72
2023/05/16 08:39:34;;;;;;;12.23;5.13;;;14.40;99.90;;;;;;5049847;28;20036;-73
2023/05/16 08:42:00;;;;;;;16.80;4.93;;;14.40;99.90;;;;;;5050334;28;20025;-73
2023/05/16 08:44:28;;;;;;;17.05;4.28;;;14.40;99.90;;;;;;5050016;28;20124;-73
2023/05/16 08:46:53;;;;;;;15.68;4.60;;;14.50;99.90;;;;;;5049994;28;20091;-73
2023/05/16 08:49:20;;;;;;;12.82;3.90;;;14.60;99.90;;;;;;5050202;28;20033;-73
2023/05/16 08:51:47;;;;;;;15.40;4.88;;;14.60;99.90;;;;;;5049304;28;20098;-73
2023/05/16 08:54:15;;;;;;;9.55;4.03;;;14.70;99.90;;;;;;5049634;28;20031;-72
2023/05/16 08:56:42;;;;;;;15.30;4.47;;;14.80;99.90;;;;;;5049951;28;20454;-73
2023/05/16 08:59:08;;;;;;;16.10;5.15;;;14.80;99.90;;;;;;5053791;28;20488;-72
2023/05/16 09:01:34;;;;;;;13.18;4.25;;;14.90;99.90;;;;;;5053784;28;20147;-73
2023/05/16 09:04:02;;;;;;;10.52;4.53;;;14.80;99.90;;;;;;5053490;28;20120;-73
2023/05/16 09:06:28;;;;;;;14.82;5.10;;;14.90;99.90;;;;;;5053574;28;20045;-72
2023/05/16 09:08:54;;;;;;;13.32;4.35;;;14.90;99.90;;;;;;5053690;28;20497;-73
2023/05/16 09:11:20;;;;;;;15.95;4.38;;;14.70;99.90;;;;;;5053370;28;20116;-72
2023/05/16 09:13:47;;;;;;;17.65;4.25;;;14.60;99.90;;;;;;5053206;28;20051;-72
2023/05/16 09:16:18;;;;;;;14.75;4.75;;;14.70;99.90;;;;;;5053503;28;20355;-72
2023/05/16 09:18:46;;;;;;;10.93;4.13;;;14.80;99.90;;;;;;5053325;28;20439;-72
2023/05/16 09:21:12;;;;;;;15.30;4.18;;;14.80;99.90;;;;;;5053672;28;20106;-72
2023/05/16 09:23:41;;;;;;;14.80;3.90;;;14.90;99.90;;;;;;5052989;28;20025;-72
2023/05/16 09:26:07;;;;;;;15.70;4.32;;;14.80;99.90;;;;;;5053199;28;20147;-72
2023/05/16 09:28:33;;;;;;;12.80;4.10;;;14.90;99.90;;;;;;5052874;28;20052;-73
2023/05/16 09:30:59;;;;;;;15.30;4.20;;;14.90;99.90;;;;;;5053206;28;20067;-72
2023/05/16 09:33:28;;;;;;;12.88;4.10;;;15.20;99.90;;;;;;5053001;28;20051;-72
2023/05/16 09:35:56;;;;;;;14.55;4.05;;;15.10;99.90;;;;;;5052600;28;20086;-72
2023/05/16 09:38:23;;;;;;;11.93;4.35;;;15.20;99.90;;;;;;5053213;28;20028;-73
2023/05/16 09:40:49;;;;;;;13.88;3.80;;;15.20;99.90;;;;;;5052775;28;20154;-72
2023/05/16 09:43:16;;;;;;;14.15;4.47;;;15.20;99.90;;;;;;5053012;28;20025;-73
2023/05/16 09:45:46;;;;;;;14.10;4.47;;;15.20;99.90;;;;;;5052750;28;20379;-74
2023/05/16 09:48:13;;;;;;;13.77;4.10;;;15.30;99.90;;;;;;5053236;28;20037;-73
2023/05/16 09:50:39;;;;;;;14.05;4.43;;;15.30;99.90;;;;;;5052728;28;20453;-75
2023/05/16 09:53:05;;;;;;;11.93;4.00;;;15.40;99.90;;;;;;5053365;28;20036;-73
2023/05/16 09:55:32;;;;;;;15.55;4.82;;;15.50;99.90;;;;;;5053093;28;20036;-73
2023/05/16 09:57:57;;;;;;;14.23;4.38;;;15.60;99.90;;;;;;5052931;28;20041;-74
2023/05/16 10:00:30;;;;;;;11.98;4.20;;;15.40;99.90;;;;;;5052889;28;20032;-73
2023/05/16 10:02:57;;;;;;;14.52;4.35;;;15.20;99.90;;;;;;5052461;28;20123;-73
2023/05/16 10:05:25;;;;;;;11.63;4.35;;;15.20;99.90;;;;;;5052931;28;20147;-73
2023/05/16 10:07:56;;;;;;;11.35;4.20;;;15.20;99.90;;;;;;5034279;28;20039;-72
2023/05/16 10:10:23;;;;;;;13.07;4.32;;;15.40;99.90;;;;;;5051746;28;20411;-72
2023/05/16 10:12:50;;;;;;;13.77;5.03;;;15.70;99.90;;;;;;5052240;28;20052;-73
2023/05/16 10:15:17;;;;;;;18.45;4.57;;;15.70;99.90;;;;;;5052431;28;20119;-73
2023/05/16 10:17:47;;;;;;;18.15;4.60;;;15.70;99.90;;;;;;5052081;28;20119;-72
2023/05/16 10:20:12;;;;;;;15.85;5.05;;;15.70;99.90;;;;;;5052493;28;20153;-72
2023/05/16 10:22:43;;;;;;;18.60;4.78;;;15.70;99.90;;;;;;5051948;28;20116;-71
2023/05/16 10:25:32;;;;;;;13.77;4.45;;;15.90;99.90;;;;;;5052384;28;20100;-72
2023/05/16 10:27:59;;;;;;;14.18;4.38;;;16.00;99.90;;;;;;5052300;28;20478;-72
2023/05/16 10:30:25;;;;;;;10.95;4.00;;;15.90;99.90;;;;;;5052014;28;20047;-72
2023/05/16 10:32:52;;;;;;;12.07;4.07;;;15.90;99.90;;;;;;5051954;28;20029;-72
2023/05/16 10:35:19;;;;;;;11.43;4.15;;;15.90;99.90;;;;;;5052044;28;20032;-71
2023/05/16 10:37:47;;;;;;;11.38;4.07;;;16.10;99.90;;;;;;5052079;28;20163;-71
2023/05/16 10:40:13;;;;;;;14.68;4.70;;;16.20;99.90;;;;;;5052325;28;20104;-72
2023/05/16 10:42:43;;;;;;;16.17;4.70;;;16.40;99.90;;;;;;5052054;28;20110;-72
2023/05/16 10:45:19;;;;;;;10.95;4.07;;;16.50;99.90;;;;;;5052153;28;20036;-72
2023/05/16 10:48:08;;;;;;;11.48;3.80;;;16.60;99.90;;;;;;5051560;28;20423;-73
2023/05/16 10:50:38;;;;;;;13.23;4.50;;;16.80;99.90;;;;;;5052282;28;20028;-73
2023/05/16 10:53:32;;;;;;;12.20;3.88;;;16.90;99.90;;;;;;5051966;28;20029;-73
2023/05/16 10:55:58;;;;;;;15.10;4.65;;;16.60;99.90;;;;;;5052195;28;20025;-73
2023/05/16 10:58:37;;;;;;;8.75;3.83;;;16.60;99.90;;;;;;5052691;28;20102;-73
2023/05/16 11:01:16;;;;;;;13.50;4.05;;;16.60;99.90;;;;;;5051994;28;20044;-71
2023/05/16 11:04:11;;;;;;;10.95;3.97;;;16.80;99.90;;;;;;5051723;28;20128;-73
2023/05/16 11:06:40;;;;;;;16.65;4.00;;;16.50;99.90;;;;;;5019962;28;20099;-73
2023/05/16 11:09:14;;;;;;;14.70;4.20;;;16.40;99.90;;;;;;5051380;28;20025;-72
2023/05/16 11:11:52;;;;;;;17.40;4.68;;;16.30;99.90;;;;;;5051389;28;20033;-73
2023/05/16 11:14:28;;;;;;;12.73;3.97;;;16.10;99.90;;;;;;5051714;28;20025;-72
2023/05/16 11:17:13;;;;;;;11.52;3.75;;;15.90;99.90;;;;;;5051047;28;20035;-73
2023/05/16 11:19:46;;;;;;;11.15;4.25;;;16.10;99.90;;;;;;5050600;28;20036;-73
2023/05/16 11:22:14;;;;;;;15.82;5.03;;;16.30;99.90;;;;;;5051296;28;20122;-73
2023/05/16 11:24:56;;;;;;;10.75;3.75;;;16.40;99.90;;;;;;5050680;28;20058;-73
2023/05/16 11:27:36;;;;;;;12.55;4.63;;;16.50;99.90;;;;;;5051387;28;20036;-73
2023/05/16 11:30:04;;;;;;;10.95;4.35;;;16.60;99.90;;;;;;5050361;28;20072;-73
2023/05/16 11:32:35;;;;;;;13.20;4.00;;;16.40;99.90;;;;;;5051103;28;20386;-72
2023/05/16 11:35:02;;;;;;;27.25;5.03;;;16.40;99.90;;;;;;5050431;28;20454;-72
2023/05/16 11:37:28;;;;;;;12.32;4.57;;;16.50;99.90;;;;;;5051226;28;20121;-72
2023/05/16 11:39:59;;;;;;;13.57;4.50;;;16.50;99.90;;;;;;5050614;28;20045;-72
2023/05/16 11:42:27;;;;;;;10.63;4.68;;;16.60;99.90;;;;;;5051105;28;20425;-73
2023/05/16 11:45:06;;;;;;;11.48;4.32;;;16.70;99.90;;;;;;5050556;28;20048;-73
2023/05/16 11:47:32;;;;;;;12.27;5.07;;;16.90;99.90;;;;;;5050863;28;20036;-72
2023/05/16 11:49:58;;;;;;;12.23;4.95;;;17.00;99.90;;;;;;5050660;28;20049;-72
2023/05/16 11:52:25;;;;;;;12.90;4.45;;;17.10;99.90;;;;;;5050480;28;20064;-73
2023/05/16 11:54:50;;;;;;;14.18;4.47;;;17.20;99.90;;;;;;5050317;28;20029;-72
2023/05/16 11:57:17;;;;;;;15.02;4.85;;;17.00;99.90;;;;;;5050817;28;20355;-72
2023/05/16 11:59:42;;;;;;;10.50;4.40;;;16.90;99.90;;;;;;5050250;28;20021;-73
2023/05/16 12:02:09;;;;;;;10.00;3.92;;;16.70;99.90;;;;;;5050920;28;20033;-72
2023/05/16 12:04:37;;;;;;;15.98;4.43;;;16.90;99.90;;;;;;5050732;28;20374;-73
2023/05/16 12:07:04;;;;;;;16.17;5.10;;;17.20;99.90;;;;;;5050339;28;20033;-74
2023/05/16 12:09:30;;;;;;;14.25;4.55;;;17.40;99.90;;;;;;5050419;28;20037;-72
2023/05/16 12:11:56;;;;;;;12.23;4.68;;;17.50;99.90;;;;;;5050177;28;20404;-72
2023/05/16 12:14:22;;;;;;;12.73;4.55;;;17.40;99.90;;;;;;5050051;28;20040;-72
2023/05/16 12:16:50;;;;;;;15.23;4.15;;;17.30;99.90;;;;;;5050254;28;20033;-72
2023/05/16 12:19:15;;;;;;;10.88;4.55;;;17.40;99.90;;;;;;5050250;28;20029;-72
2023/05/16 12:21:41;;;;;;;9.27;4.38;;;17.30;99.90;;;;;;5049894;28;20067;-73
2023/05/16 12:24:11;;;;;;;7.78;3.83;;;17.20;99.90;;;;;;5050464;28;20035;-72
2023/05/16 12:26:39;;;;;;;12.38;4.50;;;17.20;99.90;;;;;;5049908;28;20041;-72
2023/05/16 12:29:05;;;;;;;11.90;4.18;;;17.20;99.90;;;;;;5050232;28;20025;-72
2023/05/16 12:31:40;;;;;;;10.35;3.95;;;17.00;99.90;;;;;;5050680;28;20060;-72
2023/05/16 12:34:17;;;;;;;11.68;4.88;;;17.10;99.90;;;;;;5053820;28;20036;-72
2023/05/16 12:36:43;;;;;;;12.60;4.43;;;17.00;99.90;;;;;;5054245;28;20059;-72
2023/05/16 12:39:11;;;;;;;12.10;4.47;;;17.00;99.90;;;;;;5054237;28;20021;-72
2023/05/16 12:41:41;;;;;;;11.25;4.43;;;17.00;99.90;;;;;;5054161;28;20331;-72
2023/05/16 12:44:13;;;;;;;10.20;3.97;;;17.10;99.90;;;;;;5054185;28;20035;-72
2023/05/16 12:46:51;;;;;;;10.43;4.20;;;17.40;99.90;;;;;;5054061;28;20037;-72
2023/05/16 12:49:21;;;;;;;13.23;4.55;;;17.80;99.90;;;;;;5054145;28;20250;-73
2023/05/16 12:51:52;;;;;;;9.98;4.60;;;17.80;99.90;;;;;;5053606;28;20037;-73